Stinson Municipal Airport
KSSF : now visible

Airfield :











YOU CAN JOIN US ON...

 
LOGIN :

Register | Disclaimer

   EN    FR    IT 

 









Legend :    VFR   Marginal VFR   IFR   Intensive IFR   Very Intensive IFR
Visi :
Ceiling :
>= 8 km
>= 3000ft
5 to 8 km
1000 to 3000 ft
1500m to 5 km
500 to 1000 ft
800 to 1500m
200 to 500 ft
< 800m
< 200 ft
Symbols :   Thunderstorms  Fog  Heavy snow  Heavy precipitations  Wind > 20 kt







- Airport Elevation : 577 ft


KSSF - Stinson Municipal

CURRENT METAR :
  • 192153Z 13010KT 8SM FEW035 33/20 A2978 RMK AO2 SLP071 T03330200

EXPIRED METARs :
  • 192053Z 13007KT 8SM FEW046 32/21 A2980 RMK AO2 SLP078 T03220206 58016
  • 191953Z 11007KT 7SM SCT032 BKN043 32/21 A2982 RMK AO2 SLP085 T03170206

TAF KSSF
Valid from the 19 at 18:00 until the 20 at 18:00 UTC


191742Z 1918/2018 15006KT P6SM BKN030
FM191900 13008KT P6SM SCT035 BKN250
FM200300 13008KT P6SM SCT015
FM200500 13010KT P6SM OVC010
TEMPO 2008/2012 3SM BR BKN008
FM201500 16015KT P6SM BKN020
FM201730 14015G25KT P6SM SCT040
KZHU FIR / North America



MET'MAP, your aeronautical weather chart ! - Copyright ORBIFLY December 2007 - Disclaimer

ORBIFLY MET'MAP TEAM :

Programming & Development : Alexandra Zaïnal
Concept & Development : Baudouin d'Aumeries
Co-Development & Prog : Marc-Olivier Méhu
Technical & hardware support : Manuel Goepfert

Contact : metmap@orbifly.com




SOURCES & CREDITS :

   NOAA       Earth
Advisory